Aérodrome :
LOGIN :

S'inscrire | Disclaimer

   EN    FR    IT 

 










Légende :    VFR   VFR Marginal   IFR   IFR Intensif   IFR Très Intensif
Visi : 
Plafond : 
>= 8 km
>= 3000ft
5 à 8 km
1000 à 3000 ft
1500m à 5 km
500 à 1000 ft
800 à 1500m
200 à 500 ft
< 800m
< 200 ft
Symboles :   Orages  Brouillard  Fortes neiges  Fortes précipitations  Vent > 20 kt
SIGMETs :   Divers  Orages  Givrage  Turbulence  Onde Orograph.  Cendres Volcan.






- Altitude de l'aérodrome : 1247 ft
- Code IATA : PRG


LKPR - Praha Ruzyne

DERNIER METAR :
  • 220153Z 22005KT 0700 R24/1000D R30/0650N FZFG VV002 M04/M04 Q1034 RMK REG QNH 1029

METARs EXPIRÉS :
  • 220143Z 22004KT 200V260 0900 0600SE R24/P2000N R30/0650N FZFG VV002 M04/M04 Q1034 RMK REG QNH 1029
  • 220135Z 22003KT 160V270 1500 R24/P2000N R30/0650U BR BCFG VV002 M04/M04 Q1034 RMK REG QNH 1029
  • 220120Z 26004KT 2000 R24/P2000N R30/0900U BR BCFG VV002 M04/M04 Q1035 RMK REG QNH 1029
  • 220117Z 26004KT 230V290 1300 R24/P2000N R30/0750N BR BCFG VV002 M04/M04 Q1035 RMK REG QNH 1029
  • 220100Z 21003KT 0900 R24/1400U R30/1000U FZFG VV002 M04/M04 Q1035 NOSIG
  • 220030Z 24006KT 0900 R24/1300D R30/1000D FZFG VV002 M04/M04 Q1035 NOSIG
  • 220000Z 23006KT 2000 0900W R24/P2000N R30/1500D BR BCFG BKN002 M03/M04 Q1035 NOSIG
  • 212330Z 20007KT 2000 0900SE R24/P2000N R30/1700U BR BCFG VV002 M03/M04 Q1035 NOSIG
  • 212300Z 22008KT 0900 R24/1300D R30/1000D FZFG VV002 M03/M04 Q1036 NOSIG

TAF TAF LKPR
Valide du 22 à 00h jusqu'au 23 à 06h UTC


212300Z 2200/2306 24010KT 1000 BR BKN002
TEMPO 2200/2205 2500 BR BKN004
BECMG 2205/2207 6000 SCT006 SCT025
BECMG 2211/2213 32006KT 9999 BKN025
TEMPO 2213/2220 -SN BKN016
BECMG 2220/2222 25004KT 5000 BR SCT002 BKN015
TEMPO 2222/2306 1000 BR BKN002



MET'MAP, la Météo Aéronautique d'un coup d'oeil ! - Copyright ORBIFLY Décembre 2007 - Disclaimer

ORBIFLY MET'MAP TEAM :

Programmation & Développement : Alexandra Zaïnal
Sur une idée originale de : Baudouin d'Aumeries
Assistance à la programmation : Marc-Olivier Méhu
Soutien technique & logistique : Manuel Goepfert

Contact : metmap@orbifly.com




SOURCES & CREDITS :

   NOAA